Accueil
METAR-TAF:

METAR-TAF

Aéroports :

Aéroport international de Genève

Genève, Suisse

latitude: 46-15N, longitude: 006-08E, altitude: 420 m

Observation

Le bulletin a été fait il y a 21 minutes, à 05:20 UTC
Vent 1 kt de direction variable
Température -3°C
Humidité 93%
Pression 1031 hPa
Visibilité 10 km ou plus
Brouillard mince

METAR: LSGG 160520Z VRB01KT 9999 MIFG NSC M03/M04 Q1031 NOSIG

Heure: 06:41 (05:41 UTC)

Prévision

Le bulletin a été fait il y a 3 heures et 16 minutes, à 02:25 UTC
Prévision valable du 16 à 03 UTC au 17 à 09 UTC
Vent 3 kt de direction variable
Visibilité 10 km ou plus
pas de nuages en-dessous de 1500 mètres et pas de cumulonimbus.
Probabilité 30%
du 17 à 03 UTC au 17 à 08 UTC
Visibilité: 4500 m
brume

TAF: LSGG 160225Z 1603/1709 VRB03KT CAVOK TX11/1615Z TNM03/1605Z TNM03/1705Z PROB30 1703/1708 4500 BR NSC

Observations et prévisions météorologiques de plus de 4000 aéroports (messages METAR et TAF).

Les stations disponibles sont représentées par des disques jaunes et rouges sur la carte.

Passer la souris dessus pour voir le nom de la station.

Cliquer dessus pour voir les observations et prévisions météorologiques.

Pour changer de carte: cliquez sur les boutons verts avec une croix noire pour zoomer, sur le bouton vert avec un tiret pour effectuer un zoom arrière, ou sur les flèches vertes pour les cartes adjacentes.


METAR-TAF: